Time;durP1;ratioP1;P1;durP2;ratioP2;P2;SDS_P1;SDS_P2;PMS_P1;PMS_P2;Temp;Humidity;BMP_temperature;BMP_pressure;BME280_temperature;BME280_humidity;BME280_pressure;Samples;Min_cycle;Max_cycle;Signal;HPM_P1;HPM_P2
2023/07/21 09:07:25;;;;;;;4.67;4.17;;;24.10;92.60;;;;;;4937410;29;20841;-86
2023/07/21 09:09:52;;;;;;;5.13;4.10;;;24.10;92.90;;;;;;4927593;29;21007;-88
2023/07/21 09:12:19;;;;;;;8.83;4.90;;;24.10;92.30;;;;;;4938211;29;20944;-89
2023/07/21 09:14:47;;;;;;;5.47;4.97;;;24.10;92.40;;;;;;4938558;29;20539;-85
2023/07/21 09:17:15;;;;;;;5.00;4.60;;;24.10;92.30;;;;;;4938599;29;20461;-86
2023/07/21 09:19:44;;;;;;;3.60;3.30;;;24.10;92.20;;;;;;4937853;29;20449;-86
2023/07/21 09:22:11;;;;;;;3.73;3.30;;;24.10;92.80;;;;;;4938033;29;20446;-86
2023/07/21 09:24:48;;;;;;;4.17;3.77;;;24.10;93.20;;;;;;4938118;29;20530;-87
2023/07/21 09:27:17;;;;;;;3.20;2.90;;;24.10;92.90;;;;;;4938186;29;20478;-86
2023/07/21 09:29:45;;;;;;;3.43;3.10;;;24.10;92.80;;;;;;4937915;29;20478;-87
2023/07/21 09:32:13;;;;;;;8.53;4.10;;;24.10;92.80;;;;;;4937646;29;20455;-87
2023/07/21 09:34:56;;;;;;;5.60;5.10;;;24.10;92.30;;;;;;4920290;29;20467;-88
2023/07/21 09:37:50;;;;;;;5.83;5.33;;;24.20;92.20;;;;;;4938271;29;20528;-90
2023/07/21 09:40:26;;;;;;;6.67;5.47;;;24.10;92.10;;;;;;4937983;29;20515;-85
2023/07/21 09:42:53;;;;;;;7.70;6.87;;;24.00;92.20;;;;;;4938190;29;20459;-85
2023/07/21 09:45:21;;;;;;;6.40;5.80;;;24.20;92.80;;;;;;4937950;29;20445;-85
2023/07/21 09:47:49;;;;;;;5.47;5.10;;;24.20;91.90;;;;;;4937664;29;20498;-88
2023/07/21 09:50:16;;;;;;;7.07;6.37;;;24.20;92.10;;;;;;4937807;29;20446;-87
2023/07/21 09:52:47;;;;;;;5.60;5.07;;;24.20;92.10;;;;;;4937689;29;20461;-88
2023/07/21 09:55:18;;;;;;;6.87;5.60;;;24.20;92.00;;;;;;4937837;29;20453;-88
2023/07/21 09:57:46;;;;;;;10.73;7.33;;;24.20;92.10;;;;;;4938010;29;20531;-89
2023/07/21 10:00:14;;;;;;;9.30;7.10;;;24.20;92.00;;;;;;4937950;29;20548;-89
2023/07/21 10:02:42;;;;;;;7.60;7.00;;;24.20;92.00;;;;;;4937551;29;20447;-89
2023/07/21 10:05:10;;;;;;;7.50;6.80;;;24.20;92.10;;;;;;4937741;29;20476;-89
2023/07/21 10:07:39;;;;;;;7.70;6.33;;;24.20;92.10;;;;;;4937270;29;20486;-88
2023/07/21 10:10:08;;;;;;;12.13;7.23;;;24.20;92.30;;;;;;4937759;29;20451;-89
2023/07/21 10:12:49;;;;;;;6.03;5.53;;;24.20;91.70;;;;;;4937404;29;20480;-88
2023/07/21 10:15:17;;;;;;;5.60;5.27;;;24.20;91.70;;;;;;4937371;29;20536;-89
2023/07/21 10:17:56;;;;;;;6.37;5.77;;;24.20;91.60;;;;;;4937577;29;20440;-89
2023/07/21 10:20:37;;;;;;;5.33;4.83;;;24.20;92.00;;;;;;4937335;29;20450;-88
2023/07/21 10:23:05;;;;;;;5.83;5.33;;;24.20;92.30;;;;;;4926381;29;20948;-86
2023/07/21 10:26:00;;;;;;;9.03;5.93;;;24.20;92.50;;;;;;4924349;29;20475;-88
2023/07/21 10:28:36;;;;;;;7.30;6.73;;;24.20;92.50;;;;;;4935285;29;20493;-88
2023/07/21 10:31:36;;;;;;;6.73;6.13;;;24.20;92.30;;;;;;4937421;29;20442;-88
2023/07/21 10:34:04;;;;;;;6.80;6.20;;;24.20;92.30;;;;;;4937378;29;20465;-90
2023/07/21 10:36:44;;;;;;;7.23;6.13;;;24.20;92.20;;;;;;4936839;29;20443;-88
2023/07/21 10:39:12;;;;;;;7.20;6.03;;;24.20;92.00;;;;;;4937227;29;20478;-87
2023/07/21 10:41:39;;;;;;;6.10;5.60;;;24.20;92.10;;;;;;4920170;29;20497;-90
2023/07/21 10:44:09;;;;;;;8.53;5.37;;;24.20;92.20;;;;;;4937167;29;20449;-89
2023/07/21 10:46:37;;;;;;;5.67;5.27;;;24.20;92.40;;;;;;4936696;29;20452;-86
2023/07/21 10:49:04;;;;;;;7.03;4.97;;;24.20;92.50;;;;;;4936602;29;20494;-85
2023/07/21 10:51:31;;;;;;;4.70;3.80;;;24.20;92.60;;;;;;4936851;29;20449;-86
2023/07/21 10:53:57;;;;;;;3.83;3.53;;;24.20;92.60;;;;;;4936688;29;20446;-86
2023/07/21 10:56:24;;;;;;;3.50;3.20;;;24.20;92.60;;;;;;4936306;29;20446;-86
2023/07/21 10:58:52;;;;;;;4.53;3.50;;;24.20;92.70;;;;;;4936722;29;20443;-88
2023/07/21 11:01:21;;;;;;;3.80;3.50;;;24.20;92.70;;;;;;4936802;29;20534;-89
2023/07/21 11:03:48;;;;;;;3.10;2.80;;;24.40;92.90;;;;;;4936828;29;20470;-88
2023/07/21 11:06:15;;;;;;;4.47;3.00;;;24.30;92.70;;;;;;4937874;29;20782;-87
2023/07/21 11:08:42;;;;;;;2.60;2.40;;;24.30;92.70;;;;;;4936157;29;20521;-86
2023/07/21 11:11:09;;;;;;;2.60;2.40;;;24.40;92.70;;;;;;4937049;29;20446;-92
2023/07/21 11:13:38;;;;;;;3.60;3.20;;;24.30;92.90;;;;;;4938630;29;20446;-91
2023/07/21 11:16:07;;;;;;;3.10;2.90;;;24.30;93.00;;;;;;4938517;29;20447;-89
2023/07/21 11:18:35;;;;;;;3.60;3.30;;;24.30;93.10;;;;;;4939548;29;20884;-90
2023/07/21 11:21:03;;;;;;;3.17;2.87;;;24.30;93.40;;;;;;4938515;29;20442;-89
2023/07/21 11:23:32;;;;;;;4.37;3.30;;;24.40;93.50;;;;;;4938235;29;20450;-89
2023/07/21 11:26:02;;;;;;;3.40;2.87;;;24.40;93.80;;;;;;4938039;29;20448;-89
2023/07/21 11:28:29;;;;;;;2.77;2.50;;;24.40;93.70;;;;;;4940078;29;20522;-89
2023/07/21 11:30:57;;;;;;;3.97;3.10;;;24.40;93.60;;;;;;4939461;29;20518;-88
2023/07/21 11:33:24;;;;;;;3.77;3.03;;;24.40;93.30;;;;;;4939810;29;20531;-87
2023/07/21 11:35:53;;;;;;;7.33;3.53;;;24.40;93.20;;;;;;4938430;29;20551;-87
2023/07/21 11:38:20;;;;;;;2.83;2.63;;;24.40;93.10;;;;;;4939470;29;20443;-88
2023/07/21 11:40:48;;;;;;;4.33;3.30;;;24.40;93.10;;;;;;4939443;29;20497;-88
2023/07/21 11:43:15;;;;;;;3.37;3.10;;;24.40;93.10;;;;;;4939875;29;20451;-88
2023/07/21 11:45:44;;;;;;;2.60;2.40;;;24.40;93.30;;;;;;4940401;29;20455;-90
2023/07/21 11:48:13;;;;;;;2.40;2.20;;;24.40;93.30;;;;;;4938966;29;20494;-89
2023/07/21 11:50:42;;;;;;;3.53;3.00;;;24.40;93.30;;;;;;4938694;29;20455;-90
2023/07/21 11:53:11;;;;;;;2.57;2.37;;;24.40;93.50;;;;;;4938210;29;20517;-87
2023/07/21 11:55:38;;;;;;;2.80;2.60;;;24.40;93.40;;;;;;4937852;29;20503;-89
2023/07/21 11:58:05;;;;;;;3.80;2.50;;;24.40;93.40;;;;;;4942315;29;20523;-88
2023/07/21 12:00:33;;;;;;;2.73;2.10;;;24.40;93.40;;;;;;4941951;29;20447;-88
2023/07/21 12:03:01;;;;;;;3.07;2.40;;;24.40;93.40;;;;;;4942063;29;20644;-88
2023/07/21 12:05:28;;;;;;;2.40;2.20;;;24.40;93.40;;;;;;4941118;29;20466;-87
2023/07/21 12:07:55;;;;;;;2.30;2.20;;;24.40;93.40;;;;;;4941621;29;20512;-88
2023/07/21 12:10:23;;;;;;;2.90;2.70;;;24.40;93.40;;;;;;4942418;29;20450;-85
2023/07/21 12:12:52;;;;;;;2.90;2.63;;;24.40;93.20;;;;;;4939147;29;20510;-84
2023/07/21 12:15:18;;;;;;;2.50;2.30;;;24.40;93.10;;;;;;4920353;29;20448;-85
2023/07/21 12:17:46;;;;;;;2.10;1.97;;;24.50;92.90;;;;;;4920225;29;20450;-87
2023/07/21 12:20:17;;;;;;;5.40;2.30;;;24.40;92.90;;;;;;4920432;29;20836;-85
2023/07/21 12:22:44;;;;;;;3.27;2.53;;;24.40;93.00;;;;;;4920370;29;20495;-86
2023/07/21 12:25:11;;;;;;;2.10;2.00;;;24.40;93.40;;;;;;4923245;29;20439;-86
2023/07/21 12:27:40;;;;;;;2.73;2.53;;;24.40;92.90;;;;;;4939166;29;21037;-87
2023/07/21 12:30:09;;;;;;;2.47;2.27;;;24.40;92.90;;;;;;4939418;29;20454;-86
2023/07/21 12:32:36;;;;;;;2.37;2.13;;;24.40;92.80;;;;;;4939627;29;20854;-90
2023/07/21 12:35:04;;;;;;;3.83;2.40;;;24.40;92.80;;;;;;4939485;29;20541;-86
2023/07/21 12:37:32;;;;;;;3.30;1.87;;;24.40;92.70;;;;;;4939517;29;20852;-88
2023/07/21 12:39:59;;;;;;;2.00;1.90;;;24.40;92.40;;;;;;4939181;29;20449;-87
2023/07/21 12:42:28;;;;;;;2.33;2.07;;;24.40;92.40;;;;;;4938904;29;20447;-86
2023/07/21 12:44:56;;;;;;;2.00;1.80;;;24.40;92.60;;;;;;4950348;29;20454;-86
2023/07/21 12:47:23;;;;;;;2.63;2.40;;;24.40;92.50;;;;;;4948049;29;20450;-86
2023/07/21 12:49:50;;;;;;;2.47;1.77;;;24.40;92.50;;;;;;4938541;29;20486;-86
2023/07/21 12:52:17;;;;;;;1.70;1.60;;;24.40;92.50;;;;;;4938341;29;20451;-86
2023/07/21 12:54:43;;;;;;;5.33;2.03;;;24.40;92.50;;;;;;4938572;29;21002;-88
2023/07/21 12:57:10;;;;;;;1.93;1.83;;;24.40;92.60;;;;;;4938812;29;20817;-87
2023/07/21 12:59:37;;;;;;;2.17;2.00;;;24.40;92.60;;;;;;4939046;29;20455;-86
2023/07/21 13:02:06;;;;;;;2.30;1.87;;;24.40;92.60;;;;;;4939120;29;20450;-86
2023/07/21 13:04:33;;;;;;;4.37;1.70;;;24.40;92.60;;;;;;4938800;29;20473;-87
2023/07/21 13:07:00;;;;;;;3.20;2.13;;;24.40;92.50;;;;;;4938465;29;21014;-86
2023/07/21 13:09:27;;;;;;;2.17;1.70;;;24.50;92.60;;;;;;4937348;29;20851;-87
2023/07/21 13:11:56;;;;;;;4.93;1.80;;;24.50;92.60;;;;;;4938850;29;20449;-86
2023/07/21 13:14:22;;;;;;;2.63;2.10;;;24.50;92.60;;;;;;4938356;29;20514;-86
2023/07/21 13:16:49;;;;;;;1.87;1.57;;;24.50;92.70;;;;;;4938352;29;20492;-87
2023/07/21 13:19:18;;;;;;;3.63;2.07;;;24.50;92.50;;;;;;4938592;29;20538;-86
2023/07/21 13:21:44;;;;;;;2.13;1.93;;;24.50;92.60;;;;;;4938359;29;20808;-87
2023/07/21 13:24:11;;;;;;;1.90;1.70;;;24.50;92.60;;;;;;4919421;29;20450;-87
2023/07/21 13:26:40;;;;;;;2.00;1.90;;;24.50;92.60;;;;;;4919549;29;20448;-87
2023/07/21 13:29:07;;;;;;;3.40;1.87;;;24.50;92.60;;;;;;4919180;29;20496;-86
2023/07/21 13:31:34;;;;;;;2.20;1.93;;;24.50;92.90;;;;;;4919301;29;20446;-90
2023/07/21 13:34:02;;;;;;;8.07;2.07;;;24.50;93.00;;;;;;4919493;29;20827;-90
2023/07/21 13:36:31;;;;;;;4.50;2.27;;;24.60;93.00;;;;;;4919684;29;20789;-91
2023/07/21 13:38:58;;;;;;;2.50;2.30;;;24.50;92.90;;;;;;4942652;29;20443;-90
2023/07/21 13:41:25;;;;;;;2.60;1.93;;;24.50;92.90;;;;;;4938404;29;20483;-90
2023/07/21 13:43:55;;;;;;;3.37;2.13;;;24.50;92.70;;;;;;4938444;29;20539;-90
2023/07/21 13:46:23;;;;;;;2.13;1.70;;;24.50;92.90;;;;;;4949950;29;20538;-92
2023/07/21 13:48:52;;;;;;;2.17;1.97;;;24.50;92.90;;;;;;4962689;29;20478;-94
2023/07/21 13:51:19;;;;;;;3.00;1.60;;;24.50;92.80;;;;;;4958867;29;20482;-92
2023/07/21 13:53:48;;;;;;;2.77;1.70;;;24.50;92.90;;;;;;4960180;29;20454;-91
2023/07/21 13:56:14;;;;;;;2.20;1.97;;;24.50;93.00;;;;;;4941657;29;20992;-93
2023/07/21 13:58:41;;;;;;;4.97;1.77;;;24.50;92.90;;;;;;4938647;29;20478;-88
2023/07/21 14:01:09;;;;;;;4.00;1.73;;;24.40;92.80;;;;;;4938199;29;20458;-91
2023/07/21 14:03:36;;;;;;;4.33;2.07;;;24.40;92.50;;;;;;4938540;29;20591;-91
2023/07/21 14:06:03;;;;;;;4.53;2.40;;;24.40;92.60;;;;;;4938750;29;20452;-89
2023/07/21 14:08:31;;;;;;;5.80;2.30;;;24.50;92.50;;;;;;4937991;29;20480;-91
2023/07/21 14:10:59;;;;;;;2.50;1.87;;;24.40;92.50;;;;;;4938292;29;20464;-90
2023/07/21 14:13:26;;;;;;;2.60;2.40;;;24.40;92.60;;;;;;4938558;29;20974;-92
2023/07/21 14:15:53;;;;;;;2.60;1.73;;;24.40;92.80;;;;;;4939375;29;20455;-91
2023/07/21 14:18:22;;;;;;;2.10;1.97;;;24.50;92.80;;;;;;4937871;29;20800;-93
2023/07/21 14:20:49;;;;;;;3.03;1.60;;;24.50;92.80;;;;;;4938403;29;20454;-92
2023/07/21 14:23:16;;;;;;;2.37;1.70;;;24.40;92.80;;;;;;4937971;29;20445;-91
2023/07/21 14:25:43;;;;;;;2.57;2.37;;;24.50;93.00;;;;;;4937533;29;20514;-90
2023/07/21 14:28:11;;;;;;;1.70;1.60;;;24.40;92.80;;;;;;4937534;29;20459;-90
2023/07/21 14:30:38;;;;;;;1.63;1.53;;;24.50;92.80;;;;;;4938083;29;20511;-89
2023/07/21 14:33:06;;;;;;;3.00;1.80;;;24.40;92.90;;;;;;4938739;29;20514;-91
2023/07/21 14:35:33;;;;;;;1.93;1.77;;;24.40;92.80;;;;;;4938844;29;20547;-89
2023/07/21 14:38:00;;;;;;;1.90;1.63;;;24.50;93.00;;;;;;4938736;29;20452;-90
2023/07/21 14:40:26;;;;;;;1.97;1.60;;;24.40;92.90;;;;;;4939096;29;20458;-92
2023/07/21 14:42:53;;;;;;;2.07;1.83;;;24.40;92.80;;;;;;4937372;29;20848;-90
2023/07/21 14:45:22;;;;;;;1.73;1.63;;;24.40;92.80;;;;;;4937967;29;20443;-90
2023/07/21 14:47:49;;;;;;;1.70;1.60;;;24.40;93.00;;;;;;4938017;29;20542;-94
2023/07/21 14:50:16;;;;;;;2.13;1.77;;;24.30;92.90;;;;;;4937257;29;20534;-91
2023/07/21 14:52:43;;;;;;;2.77;2.20;;;24.40;92.80;;;;;;4937454;29;20450;-90
2023/07/21 14:55:12;;;;;;;2.53;1.50;;;24.40;93.00;;;;;;4936909;29;20549;-92
2023/07/21 14:57:39;;;;;;;1.87;1.43;;;24.50;92.90;;;;;;4937775;29;20946;-91
2023/07/21 15:00:13;;;;;;;2.10;1.73;;;24.40;93.00;;;;;;4937712;29;20454;-90
2023/07/21 15:02:41;;;;;;;2.10;1.40;;;24.50;92.90;;;;;;4939294;29;20458;-91
2023/07/21 15:05:10;;;;;;;2.80;1.60;;;24.50;92.90;;;;;;4937925;29;20980;-88
2023/07/21 15:07:37;;;;;;;3.20;1.80;;;24.50;93.00;;;;;;4937129;29;20480;-91
2023/07/21 15:10:05;;;;;;;4.60;1.40;;;24.50;93.00;;;;;;4937300;29;20488;-88
2023/07/21 15:12:32;;;;;;;1.60;1.50;;;24.40;93.00;;;;;;4938817;29;20452;-88
2023/07/21 15:14:59;;;;;;;3.10;1.70;;;24.60;93.10;;;;;;4939212;29;20541;-90
2023/07/21 15:17:26;;;;;;;1.60;1.50;;;24.50;92.90;;;;;;4936738;29;20452;-87
2023/07/21 15:19:54;;;;;;;1.97;1.60;;;24.40;92.80;;;;;;4937611;29;20452;-89
2023/07/21 15:22:22;;;;;;;1.83;1.63;;;24.50;92.90;;;;;;4939554;29;20448;-88
2023/07/21 15:24:49;;;;;;;1.80;1.70;;;24.40;92.80;;;;;;4937701;29;20450;-91
2023/07/21 15:27:16;;;;;;;1.30;1.20;;;24.50;92.90;;;;;;4937901;29;20761;-88
2023/07/21 15:29:43;;;;;;;2.63;1.83;;;24.50;93.00;;;;;;4936169;29;20486;-92
2023/07/21 15:32:10;;;;;;;1.33;1.23;;;24.50;92.90;;;;;;4936048;29;20448;-89
2023/07/21 15:34:39;;;;;;;1.60;1.50;;;24.50;92.90;;;;;;4936421;29;20532;-92
2023/07/21 15:37:07;;;;;;;1.70;1.60;;;24.50;92.90;;;;;;4937513;29;20442;-91
2023/07/21 15:39:36;;;;;;;1.50;1.40;;;24.50;92.90;;;;;;4936187;29;20458;-89
2023/07/21 15:42:05;;;;;;;2.20;1.60;;;24.50;92.90;;;;;;4937855;29;20448;-90
2023/07/21 15:44:31;;;;;;;1.60;1.50;;;24.50;93.00;;;;;;4937757;29;20479;-88
2023/07/21 15:46:59;;;;;;;1.37;1.27;;;24.50;92.90;;;;;;4936500;29;20797;-88
2023/07/21 15:49:26;;;;;;;1.83;1.50;;;24.50;93.00;;;;;;4936209;29;20844;-91
2023/07/21 15:51:53;;;;;;;1.97;1.43;;;24.50;92.90;;;;;;4937259;29;20472;-87
2023/07/21 15:54:21;;;;;;;1.37;1.27;;;24.50;92.90;;;;;;4939900;29;20478;-87
2023/07/21 15:56:49;;;;;;;1.43;1.27;;;24.50;92.90;;;;;;4939094;29;20448;-90
2023/07/21 15:59:16;;;;;;;1.60;1.50;;;24.50;92.90;;;;;;4938228;29;20452;-89
2023/07/21 16:01:43;;;;;;;1.67;1.57;;;24.50;93.00;;;;;;4938191;29;20833;-91
2023/07/21 16:04:10;;;;;;;1.40;1.30;;;24.50;93.10;;;;;;4935886;29;20469;-90
2023/07/21 16:06:37;;;;;;;1.30;1.20;;;24.50;93.00;;;;;;4938010;29;20455;-90
2023/07/21 16:09:05;;;;;;;1.80;1.70;;;24.50;93.10;;;;;;4938044;29;20477;-90
2023/07/21 16:11:33;;;;;;;1.20;1.10;;;24.50;93.10;;;;;;4937221;29;20448;-89
2023/07/21 16:13:59;;;;;;;1.60;1.50;;;24.50;93.00;;;;;;4936759;29;20864;-89
2023/07/21 16:16:27;;;;;;;1.63;1.50;;;24.50;93.10;;;;;;4938249;29;20537;-91
2023/07/21 16:18:54;;;;;;;2.43;2.23;;;24.50;92.80;;;;;;4936428;29;20461;-88
2023/07/21 16:21:21;;;;;;;4.90;2.00;;;24.50;92.80;;;;;;4936733;29;20494;-89
2023/07/21 16:23:48;;;;;;;1.87;1.77;;;24.50;92.60;;;;;;4936116;29;20780;-91
2023/07/21 16:26:18;;;;;;;1.80;1.70;;;24.50;92.50;;;;;;4936179;29;20444;-89
2023/07/21 16:28:46;;;;;;;1.50;1.40;;;24.50;92.50;;;;;;4936610;29;20442;-90
2023/07/21 16:31:13;;;;;;;1.80;1.70;;;24.50;92.60;;;;;;4935711;29;20498;-88
2023/07/21 16:33:40;;;;;;;1.57;1.47;;;24.60;92.60;;;;;;4937519;29;20493;-89
2023/07/21 16:36:06;;;;;;;1.50;1.40;;;24.50;92.50;;;;;;4935813;29;20532;-92
2023/07/21 16:38:33;;;;;;;1.50;1.40;;;24.50;92.60;;;;;;4936153;29;20482;-90
2023/07/21 16:41:03;;;;;;;1.67;1.53;;;24.50;92.50;;;;;;4936050;29;20812;-93
2023/07/21 16:43:31;;;;;;;1.60;1.50;;;24.50;92.50;;;;;;4936602;29;20537;-89
2023/07/21 16:45:59;;;;;;;1.53;1.43;;;24.50;92.70;;;;;;4939709;29;20475;-89
2023/07/21 16:48:26;;;;;;;1.87;1.50;;;24.50;92.70;;;;;;4939323;29;20451;-87
2023/07/21 16:50:53;;;;;;;1.90;1.53;;;24.50;92.70;;;;;;4939831;29;20854;-88
2023/07/21 16:53:22;;;;;;;1.53;1.43;;;24.50;92.60;;;;;;4938403;29;20458;-89
2023/07/21 16:55:49;;;;;;;1.40;1.30;;;24.50;92.70;;;;;;4938957;29;20942;-88
2023/07/21 16:58:18;;;;;;;1.77;1.67;;;24.50;92.70;;;;;;4939024;29;20448;-89
2023/07/21 17:00:45;;;;;;;1.60;1.50;;;24.40;92.70;;;;;;4938908;29;20510;-89
2023/07/21 17:03:13;;;;;;;2.17;1.47;;;24.50;92.70;;;;;;4938786;29;20510;-88
2023/07/21 17:05:40;;;;;;;2.60;1.40;;;24.40;92.60;;;;;;4938661;29;20822;-88
2023/07/21 17:08:08;;;;;;;1.40;1.30;;;24.40;92.60;;;;;;4934884;29;20476;-91
2023/07/21 17:10:36;;;;;;;1.50;1.40;;;24.50;93.00;;;;;;4919938;29;20997;-89
2023/07/21 17:13:03;;;;;;;3.53;1.77;;;24.40;92.70;;;;;;4919667;29;20444;-90
2023/07/21 17:15:30;;;;;;;3.50;1.80;;;24.40;92.70;;;;;;4920128;29;20527;-88
2023/07/21 17:17:59;;;;;;;2.13;1.40;;;24.40;92.50;;;;;;4919858;29;20452;-89
2023/07/21 17:20:27;;;;;;;2.13;1.57;;;24.40;92.40;;;;;;4919785;29;20536;-90
2023/07/21 17:22:54;;;;;;;2.23;1.60;;;24.50;92.60;;;;;;4919889;29;20444;-90
2023/07/21 17:25:21;;;;;;;1.50;1.40;;;24.40;92.50;;;;;;4919578;29;20467;-92
2023/07/21 17:27:52;;;;;;;4.60;1.70;;;24.40;92.30;;;;;;4919733;29;20494;-95
2023/07/21 17:30:19;;;;;;;1.33;1.23;;;24.40;92.50;;;;;;4922255;29;20506;-89
2023/07/21 17:32:46;;;;;;;1.60;1.50;;;24.40;92.50;;;;;;4920071;29;20455;-88
2023/07/21 17:35:14;;;;;;;1.30;1.20;;;24.40;92.60;;;;;;4921101;29;20472;-87
2023/07/21 17:37:49;;;;;;;1.77;1.30;;;24.50;92.50;;;;;;4925552;29;20563;-87
2023/07/21 17:40:16;;;;;;;2.07;1.50;;;24.50;92.80;;;;;;4925360;29;20448;-86
2023/07/21 17:42:44;;;;;;;4.60;1.53;;;24.40;92.50;;;;;;4920480;29;20896;-89
2023/07/21 17:45:13;;;;;;;1.50;1.37;;;24.40;92.60;;;;;;4930992;29;20538;-91
2023/07/21 17:47:42;;;;;;;3.20;1.40;;;24.50;92.50;;;;;;4938529;29;20530;-90
2023/07/21 17:50:10;;;;;;;3.87;1.30;;;24.40;92.60;;;;;;4937839;29;20498;-87
2023/07/21 17:52:39;;;;;;;4.60;1.40;;;24.40;92.30;;;;;;4938062;29;20985;-88
2023/07/21 17:55:08;;;;;;;1.53;1.40;;;24.40;92.20;;;;;;4937628;29;20452;-87
2023/07/21 17:57:35;;;;;;;1.70;1.53;;;24.40;92.30;;;;;;4937756;29;20450;-88
2023/07/21 18:00:04;;;;;;;1.77;1.30;;;24.40;92.40;;;;;;4937891;29;20453;-88
2023/07/21 18:02:31;;;;;;;2.23;1.30;;;24.40;92.40;;;;;;4937844;29;20529;-87
2023/07/21 18:04:58;;;;;;;2.33;1.40;;;24.40;92.30;;;;;;4937839;29;20489;-87
2023/07/21 18:07:25;;;;;;;1.67;1.20;;;24.50;92.40;;;;;;4937467;29;20481;-88
2023/07/21 18:09:52;;;;;;;2.20;1.47;;;24.40;92.30;;;;;;4937448;29;20487;-92
2023/07/21 18:12:20;;;;;;;4.37;1.40;;;24.50;92.30;;;;;;4937900;29;20455;-92
2023/07/21 18:14:46;;;;;;;2.10;1.50;;;24.40;92.30;;;;;;4937820;29;20545;-91
2023/07/21 18:17:14;;;;;;;2.13;1.47;;;24.40;92.40;;;;;;4943226;29;20456;-87
2023/07/21 18:19:41;;;;;;;3.03;1.43;;;24.40;92.70;;;;;;4947167;29;20457;-92
2023/07/21 18:22:08;;;;;;;2.30;1.70;;;24.40;92.40;;;;;;4937303;29;20529;-89
2023/07/21 18:24:35;;;;;;;4.07;1.50;;;24.40;92.30;;;;;;4937154;29;20458;-90
2023/07/21 18:27:02;;;;;;;2.07;1.43;;;24.40;92.20;;;;;;4937251;29;20458;-91
2023/07/21 18:29:30;;;;;;;1.50;1.30;;;24.40;92.20;;;;;;4937363;29;20541;-90
2023/07/21 18:31:57;;;;;;;2.60;1.40;;;24.40;92.00;;;;;;4937265;29;20490;-90
2023/07/21 18:34:26;;;;;;;3.67;1.60;;;24.40;91.90;;;;;;4936931;29;20530;-92
2023/07/21 18:36:53;;;;;;;2.17;1.53;;;24.40;92.10;;;;;;4937324;29;20901;-90
2023/07/21 18:39:20;;;;;;;4.57;1.50;;;24.40;92.00;;;;;;4937186;29;20449;-88
2023/07/21 18:41:47;;;;;;;3.30;1.67;;;24.50;92.00;;;;;;4936986;29;20442;-89
2023/07/21 18:44:15;;;;;;;2.10;1.27;;;24.40;92.00;;;;;;4937208;29;20487;-89
2023/07/21 18:46:43;;;;;;;6.43;1.70;;;24.40;92.00;;;;;;4936769;29;20461;-90
2023/07/21 18:49:10;;;;;;;1.63;1.53;;;24.40;91.90;;;;;;4936718;29;20449;-88
2023/07/21 18:51:37;;;;;;;2.33;1.87;;;24.40;91.90;;;;;;4937026;29;20493;-89
2023/07/21 18:54:03;;;;;;;2.80;1.30;;;24.40;91.90;;;;;;4936993;29;20498;-90
2023/07/21 18:56:31;;;;;;;4.00;2.07;;;24.40;92.00;;;;;;4936855;29;20447;-90
2023/07/21 18:59:00;;;;;;;1.63;1.53;;;24.40;92.00;;;;;;4936733;29;20455;-89
2023/07/21 19:01:29;;;;;;;1.40;1.27;;;24.40;92.00;;;;;;4936632;29;20455;-89
2023/07/21 19:04:08;;;;;;;1.63;1.53;;;24.40;92.20;;;;;;4934946;29;20475;-89
2023/07/21 19:06:39;;;;;;;2.93;2.07;;;24.40;92.10;;;;;;4935377;29;20931;-91
2023/07/21 19:09:06;;;;;;;1.63;1.53;;;24.40;92.00;;;;;;4936673;29;20622;-89
2023/07/21 19:11:33;;;;;;;2.50;1.50;;;24.40;92.30;;;;;;4936313;29;20688;-90
2023/07/21 19:14:00;;;;;;;2.50;1.80;;;24.40;92.30;;;;;;4936772;29;20449;-89
2023/07/21 19:16:29;;;;;;;1.63;1.10;;;24.40;92.20;;;;;;4936656;29;20460;-88
2023/07/21 19:18:56;;;;;;;1.90;1.70;;;24.40;92.30;;;;;;4936691;29;20846;-89
2023/07/21 19:21:24;;;;;;;2.17;1.97;;;24.40;92.70;;;;;;4936395;29;20496;-89
2023/07/21 19:23:51;;;;;;;5.10;1.97;;;24.40;92.60;;;;;;4936501;29;20533;-90
2023/07/21 19:26:20;;;;;;;2.43;1.70;;;24.40;92.60;;;;;;4936661;29;20464;-90
2023/07/21 19:28:47;;;;;;;1.73;1.60;;;24.40;92.60;;;;;;4936306;29;20521;-90
2023/07/21 19:31:17;;;;;;;2.63;1.73;;;24.50;92.60;;;;;;4936197;29;20505;-90
2023/07/21 19:33:44;;;;;;;2.53;1.90;;;24.50;92.50;;;;;;4936253;29;20468;-90
2023/07/21 19:36:13;;;;;;;6.40;4.23;;;24.40;92.30;;;;;;4936287;29;20444;-88
2023/07/21 19:38:41;;;;;;;4.90;4.37;;;24.40;92.10;;;;;;4936309;29;20478;-88
2023/07/21 19:41:08;;;;;;;4.57;3.90;;;24.40;91.30;;;;;;4936481;29;20855;-90
2023/07/21 19:43:35;;;;;;;5.00;3.77;;;24.40;91.30;;;;;;4936235;29;20534;-89
2023/07/21 19:46:02;;;;;;;3.90;3.40;;;24.30;91.50;;;;;;4936432;29;20451;-90
2023/07/21 19:48:28;;;;;;;8.07;3.10;;;24.30;91.40;;;;;;4935967;29;20881;-90
2023/07/21 19:50:55;;;;;;;2.20;2.00;;;24.30;91.80;;;;;;4935427;29;20488;-88
2023/07/21 19:53:22;;;;;;;2.77;2.23;;;24.30;92.10;;;;;;4936205;29;20450;-89
2023/07/21 19:55:50;;;;;;;1.80;1.70;;;24.30;92.20;;;;;;4936378;29;20452;-90
2023/07/21 19:58:17;;;;;;;2.23;2.13;;;24.40;92.30;;;;;;4936137;29;20442;-89
2023/07/21 20:00:44;;;;;;;2.90;1.97;;;24.40;92.30;;;;;;4937014;29;20449;-89
2023/07/21 20:03:11;;;;;;;2.40;2.30;;;24.40;92.30;;;;;;4936127;29;20483;-91
2023/07/21 20:05:38;;;;;;;5.13;2.67;;;24.40;92.30;;;;;;4936091;29;20442;-91
2023/07/21 20:08:05;;;;;;;2.60;2.40;;;24.40;92.20;;;;;;4935820;29;20504;-91
2023/07/21 20:10:32;;;;;;;3.53;1.97;;;24.40;92.30;;;;;;4935824;29;20498;-89
2023/07/21 20:13:00;;;;;;;2.10;2.00;;;24.40;92.40;;;;;;4936257;29;20865;-90
2023/07/21 20:15:28;;;;;;;2.17;1.97;;;24.40;92.30;;;;;;4935988;29;20502;-89
2023/07/21 20:17:56;;;;;;;2.37;2.17;;;24.40;92.40;;;;;;4936087;29;20498;-91
2023/07/21 20:20:22;;;;;;;2.50;2.20;;;24.40;92.40;;;;;;4939504;29;20558;-90
2023/07/21 20:22:49;;;;;;;2.40;2.20;;;24.40;92.50;;;;;;4939764;29;20814;-88
2023/07/21 20:25:16;;;;;;;2.40;2.20;;;24.30;92.30;;;;;;4931012;29;20455;-88
2023/07/21 20:27:43;;;;;;;3.57;2.07;;;24.40;92.30;;;;;;4924212;29;20551;-89
2023/07/21 20:30:12;;;;;;;3.13;2.93;;;24.40;92.30;;;;;;4939610;29;20551;-90
2023/07/21 20:32:42;;;;;;;2.13;2.03;;;24.40;92.30;;;;;;4939449;29;20440;-89
2023/07/21 20:35:09;;;;;;;2.40;2.20;;;24.40;92.30;;;;;;4939558;29;21006;-90
2023/07/21 20:37:36;;;;;;;3.17;2.87;;;24.40;92.40;;;;;;4939524;29;20453;-90
2023/07/21 20:40:03;;;;;;;2.30;2.20;;;24.40;92.20;;;;;;4939807;29;20452;-90
2023/07/21 20:42:30;;;;;;;5.30;2.23;;;24.40;92.10;;;;;;4939362;29;20492;-91
2023/07/21 20:44:57;;;;;;;2.70;2.50;;;24.30;92.20;;;;;;4939130;29;20443;-91
2023/07/21 20:47:25;;;;;;;2.20;2.00;;;24.40;92.20;;;;;;4939251;29;20460;-91
2023/07/21 20:49:52;;;;;;;2.50;2.30;;;24.40;92.20;;;;;;4939254;29;20812;-89
2023/07/21 20:52:19;;;;;;;2.50;2.30;;;24.40;92.50;;;;;;4939156;29;20503;-89
2023/07/21 20:54:46;;;;;;;3.47;2.60;;;24.40;92.40;;;;;;4938863;29;20480;-91
2023/07/21 20:57:13;;;;;;;2.40;2.20;;;24.40;92.30;;;;;;4938839;29;20939;-92
2023/07/21 20:59:40;;;;;;;3.00;2.80;;;24.40;92.30;;;;;;4938983;29;20538;-92
2023/07/21 21:02:07;;;;;;;2.40;2.10;;;24.40;92.30;;;;;;4938759;29;20523;-89
2023/07/21 21:04:36;;;;;;;2.67;2.30;;;24.30;92.30;;;;;;4938775;29;20471;-90
2023/07/21 21:07:03;;;;;;;2.50;2.30;;;24.30;92.20;;;;;;4938761;29;20539;-89
2023/07/21 21:09:30;;;;;;;2.80;2.60;;;24.30;92.30;;;;;;4939470;29;20447;-89
2023/07/21 21:11:57;;;;;;;3.50;2.90;;;24.30;92.30;;;;;;4938649;29;20919;-89
2023/07/21 21:14:23;;;;;;;3.23;2.00;;;24.40;92.50;;;;;;4938522;29;20978;-89
2023/07/21 21:16:50;;;;;;;2.83;2.63;;;24.30;92.40;;;;;;4938672;29;20457;-89
2023/07/21 21:19:17;;;;;;;2.70;2.50;;;24.30;92.40;;;;;;4938384;29;20547;-88
2023/07/21 21:21:45;;;;;;;2.70;2.50;;;24.30;92.50;;;;;;4938819;29;20447;-90
2023/07/21 21:24:12;;;;;;;3.30;2.47;;;24.30;92.70;;;;;;4938705;29;20461;-89
2023/07/21 21:26:39;;;;;;;3.20;3.00;;;24.30;92.70;;;;;;4938617;29;20445;-89
2023/07/21 21:29:06;;;;;;;3.20;2.90;;;24.30;92.70;;;;;;4938386;29;20447;-93
2023/07/21 21:31:33;;;;;;;3.67;3.37;;;24.30;92.60;;;;;;4939440;29;20590;-92
2023/07/21 21:33:59;;;;;;;2.60;2.40;;;24.30;92.50;;;;;;4938508;29;20478;-89
2023/07/21 21:36:26;;;;;;;2.50;2.30;;;24.30;92.60;;;;;;4938323;29;20597;-89
2023/07/21 21:38:55;;;;;;;2.83;2.63;;;24.30;92.60;;;;;;4938118;29;20439;-89
2023/07/21 21:41:21;;;;;;;3.20;2.90;;;24.30;92.70;;;;;;4938453;29;20448;-86
2023/07/21 21:43:48;;;;;;;2.20;2.00;;;24.40;92.90;;;;;;4937740;29;20880;-85
2023/07/21 21:46:15;;;;;;;3.20;2.90;;;24.40;92.60;;;;;;4937929;29;20537;-88
2023/07/21 21:48:42;;;;;;;2.30;2.10;;;24.30;92.60;;;;;;4937578;29;20449;-87
2023/07/21 21:51:09;;;;;;;3.27;3.03;;;24.40;92.50;;;;;;4938186;29;20531;-88
2023/07/21 21:53:36;;;;;;;3.07;2.87;;;24.30;92.70;;;;;;4938034;29;20506;-87
2023/07/21 21:56:05;;;;;;;3.43;3.23;;;24.40;92.40;;;;;;4937994;29;20533;-88
2023/07/21 21:58:32;;;;;;;2.87;2.67;;;24.30;92.40;;;;;;4937763;29;20841;-88